Time;durP1;ratioP1;P1;durP2;ratioP2;P2;SDS_P1;SDS_P2;PMS_P1;PMS_P2;Temp;Humidity;BMP_temperature;BMP_pressure;BME280_temperature;BME280_humidity;BME280_pressure;Samples;Min_cycle;Max_cycle;Signal;HPM_P1;HPM_P2
2022/10/06 00:00:20;;;;;;;0.10;0.10;;;14.30;99.90;;;;;;5086222;28;20217;-82
2022/10/06 00:02:45;;;;;;;0.10;0.10;;;14.30;99.90;;;;;;5092517;28;20845;-81
2022/10/06 00:05:11;;;;;;;0.10;0.10;;;14.30;99.90;;;;;;5082573;28;20725;-83
2022/10/06 00:07:37;;;;;;;0.10;0.10;;;14.30;99.90;;;;;;5089867;28;20193;-84
2022/10/06 00:10:04;;;;;;;0.10;0.10;;;14.30;99.90;;;;;;5089393;28;20438;-81
2022/10/06 00:12:45;;;;;;;0.20;0.20;;;14.30;99.90;;;;;;5078912;28;20235;-82
2022/10/06 00:15:12;;;;;;;0.10;0.10;;;14.30;99.90;;;;;;5089218;28;20783;-82
2022/10/06 00:17:39;;;;;;;0.10;0.10;;;14.40;99.90;;;;;;5081159;28;20452;-80
2022/10/06 00:20:06;;;;;;;0.10;0.10;;;14.40;99.90;;;;;;5088298;28;20447;-82
2022/10/06 00:22:37;;;;;;;0.10;0.10;;;14.30;99.90;;;;;;5068970;28;20456;-81
2022/10/06 00:25:04;;;;;;;0.10;0.10;;;14.30;99.90;;;;;;5070079;28;20443;-82
2022/10/06 00:27:50;;;;;;;0.10;0.10;;;14.20;99.90;;;;;;5069416;28;20963;-81
2022/10/06 00:30:19;;;;;;;0.10;0.10;;;14.20;99.90;;;;;;5084109;28;21031;-83
2022/10/06 00:32:52;;;;;;;0.10;0.10;;;14.20;99.90;;;;;;5073710;28;20487;-82
2022/10/06 00:35:18;;;;;;;0.10;0.10;;;14.20;99.90;;;;;;5071523;28;21396;-81
2022/10/06 00:37:44;;;;;;;0.10;0.10;;;14.20;99.90;;;;;;5085936;28;20439;-81
2022/10/06 00:40:09;;;;;;;0.10;0.10;;;14.10;99.90;;;;;;5086380;28;20880;-82
2022/10/06 00:42:51;;;;;;;0.10;0.10;;;14.10;99.90;;;;;;5083486;28;20189;-83
2022/10/06 00:45:19;;;;;;;0.10;0.10;;;14.10;99.90;;;;;;5086922;28;20280;-81
2022/10/06 00:47:45;;;;;;;0.10;0.10;;;14.10;99.90;;;;;;5088505;28;20946;-80
2022/10/06 00:50:13;;;;;;;0.10;0.10;;;14.10;99.90;;;;;;5088633;28;20447;-83
2022/10/06 00:52:39;;;;;;;0.10;0.10;;;14.00;99.90;;;;;;5090757;28;20575;-81
2022/10/06 00:55:08;;;;;;;0.20;0.20;;;13.90;99.90;;;;;;5096456;28;20954;-82
2022/10/06 00:57:36;;;;;;;0.10;0.10;;;13.90;99.90;;;;;;5077362;28;20451;-82
2022/10/06 01:00:07;;;;;;;0.10;0.10;;;13.90;99.90;;;;;;5088091;28;21096;-83
2022/10/06 01:02:47;;;;;;;0.10;0.10;;;13.90;99.90;;;;;;5083714;28;20459;-82
2022/10/06 01:05:17;;;;;;;0.10;0.10;;;13.80;99.90;;;;;;5085803;28;21037;-83
2022/10/06 01:07:43;;;;;;;0.10;0.10;;;13.80;99.90;;;;;;5083867;28;20439;-82
2022/10/06 01:10:09;;;;;;;0.20;0.20;;;13.70;99.90;;;;;;5088136;28;20518;-84
2022/10/06 01:12:34;;;;;;;0.10;0.10;;;13.70;99.90;;;;;;5090414;28;20560;-83
2022/10/06 01:15:00;;;;;;;0.10;0.10;;;13.70;99.90;;;;;;5085294;28;20615;-82
2022/10/06 01:17:44;;;;;;;0.10;0.10;;;13.60;99.90;;;;;;5072813;28;20732;-82
2022/10/06 01:20:15;;;;;;;0.10;0.10;;;13.60;99.90;;;;;;5083246;28;20196;-82
2022/10/06 01:22:44;;;;;;;0.10;0.10;;;13.60;99.90;;;;;;5067783;28;20444;-83
2022/10/06 01:25:12;;;;;;;0.10;0.10;;;13.60;99.90;;;;;;5071139;28;20554;-81
2022/10/06 01:27:40;;;;;;;0.10;0.10;;;13.60;99.90;;;;;;5084810;28;20447;-82
2022/10/06 01:30:08;;;;;;;0.10;0.10;;;13.60;99.90;;;;;;5080144;28;20450;-82
2022/10/06 01:32:37;;;;;;;0.10;0.10;;;13.50;99.90;;;;;;5088158;28;20977;-82
2022/10/06 01:35:05;;;;;;;0.10;0.10;;;13.50;99.90;;;;;;5090800;28;20435;-81
2022/10/06 01:37:30;;;;;;;0.10;0.10;;;13.50;99.90;;;;;;5084804;28;20446;-83
2022/10/06 01:39:56;;;;;;;0.10;0.10;;;13.50;99.90;;;;;;5087640;28;20479;-82
2022/10/06 01:42:21;;;;;;;0.10;0.10;;;13.50;99.90;;;;;;5081632;28;20304;-82
2022/10/06 01:44:47;;;;;;;0.10;0.10;;;13.60;99.90;;;;;;5098706;28;20200;-82
2022/10/06 01:47:12;;;;;;;0.10;0.10;;;13.70;99.90;;;;;;5093149;28;20211;-81
2022/10/06 01:49:39;;;;;;;0.10;0.10;;;13.70;99.90;;;;;;5086040;28;20177;-79
2022/10/06 01:52:05;;;;;;;0.10;0.10;;;13.50;99.90;;;;;;5091975;28;20234;-80
2022/10/06 01:54:30;;;;;;;0.10;0.10;;;13.30;99.90;;;;;;5057644;28;20905;-80
2022/10/06 01:56:56;;;;;;;0.20;0.20;;;13.20;99.90;;;;;;5084424;28;20298;-79
2022/10/06 01:59:21;;;;;;;0.20;0.20;;;13.10;99.90;;;;;;5088137;28;20264;-81
2022/10/06 02:01:47;;;;;;;0.17;0.17;;;13.10;99.90;;;;;;5069618;28;20563;-81
2022/10/06 02:04:13;;;;;;;0.10;0.10;;;13.00;99.90;;;;;;5087538;28;20542;-79
2022/10/06 02:06:38;;;;;;;0.20;0.20;;;12.90;99.90;;;;;;5090599;28;20268;-80
2022/10/06 02:09:04;;;;;;;0.20;0.20;;;12.80;99.90;;;;;;5089572;28;21151;-81
2022/10/06 02:11:29;;;;;;;0.20;0.20;;;12.70;99.90;;;;;;5085433;28;20181;-80
2022/10/06 02:13:55;;;;;;;0.20;0.20;;;12.60;99.90;;;;;;5090112;28;20199;-79
2022/10/06 02:16:21;;;;;;;0.10;0.10;;;12.50;99.90;;;;;;5076632;28;20657;-80
2022/10/06 02:18:46;;;;;;;0.20;0.20;;;12.40;99.90;;;;;;5082496;28;20189;-80
2022/10/06 02:21:20;;;;;;;0.20;0.20;;;12.30;99.90;;;;;;5090884;28;20220;-82
2022/10/06 02:23:46;;;;;;;0.20;0.20;;;12.30;99.90;;;;;;5071372;28;20201;-80
2022/10/06 02:26:14;;;;;;;0.20;0.20;;;12.30;99.90;;;;;;5078358;28;20451;-80
2022/10/06 02:28:40;;;;;;;0.20;0.20;;;12.20;99.90;;;;;;5087782;28;20423;-80
2022/10/06 02:31:07;;;;;;;0.20;0.20;;;12.10;99.90;;;;;;5086553;28;20439;-81
2022/10/06 02:33:34;;;;;;;0.20;0.20;;;12.10;99.90;;;;;;5095154;28;20645;-81
2022/10/06 02:35:59;;;;;;;0.20;0.20;;;12.10;99.90;;;;;;5088335;28;20419;-81
2022/10/06 02:38:25;;;;;;;0.20;0.20;;;12.10;99.90;;;;;;5096118;28;20449;-82
2022/10/06 05:33:41;;;;;;;0.20;0.20;;;12.00;99.90;;;;;;5130650;23;23311;-78
2022/10/06 05:36:11;;;;;;;0.20;0.20;;;12.10;99.90;;;;;;5016720;28;20477;-81
2022/10/06 05:38:37;;;;;;;0.20;0.20;;;12.10;99.90;;;;;;5026969;28;20450;-83
2022/10/06 05:41:09;;;;;;;0.10;0.10;;;12.20;99.90;;;;;;5027246;28;20500;-81
2022/10/06 05:43:34;;;;;;;0.20;0.20;;;12.20;99.90;;;;;;5023408;28;20470;-81
2022/10/06 05:46:01;;;;;;;0.20;0.20;;;12.20;99.90;;;;;;5025553;28;20501;-82
2022/10/06 05:48:28;;;;;;;0.10;0.10;;;12.20;99.90;;;;;;5028887;28;20199;-82
2022/10/06 05:51:05;;;;;;;0.10;0.10;;;12.10;99.90;;;;;;5024987;28;20446;-82
2022/10/06 05:53:33;;;;;;;0.20;0.20;;;12.10;99.90;;;;;;5025583;28;20473;-81
2022/10/06 05:56:21;;;;;;;0.10;0.10;;;12.10;99.90;;;;;;5022346;28;20441;-82
2022/10/06 05:58:50;;;;;;;0.13;0.13;;;12.10;99.90;;;;;;5018804;28;20442;-79
2022/10/06 06:01:23;;;;;;;0.10;0.10;;;12.10;99.90;;;;;;5022815;28;20481;-81
2022/10/06 06:03:54;;;;;;;0.20;0.20;;;12.10;99.90;;;;;;5027351;28;20448;-80
2022/10/06 06:06:25;;;;;;;0.17;0.17;;;12.10;99.90;;;;;;5012785;28;20814;-80
2022/10/06 06:09:05;;;;;;;0.10;0.10;;;12.10;99.90;;;;;;5008007;28;20454;-80
2022/10/06 06:11:31;;;;;;;0.20;0.20;;;12.10;99.90;;;;;;5030207;28;20870;-82
2022/10/06 06:14:01;;;;;;;0.20;0.20;;;12.00;99.90;;;;;;5024882;28;20453;-82
2022/10/06 06:16:32;;;;;;;0.20;0.20;;;12.10;99.90;;;;;;5024897;28;21915;-82
2022/10/06 06:18:59;;;;;;;0.20;0.20;;;12.10;99.90;;;;;;5022689;28;20453;-83
2022/10/06 06:21:27;;;;;;;0.10;0.10;;;12.10;99.90;;;;;;5019622;28;20481;-82
2022/10/06 06:23:53;;;;;;;0.10;0.10;;;12.20;99.90;;;;;;5022437;28;20440;-83
2022/10/06 06:26:24;;;;;;;0.10;0.10;;;12.20;99.90;;;;;;5029666;28;20438;-83
2022/10/06 06:28:55;;;;;;;0.10;0.10;;;12.20;99.90;;;;;;5031506;28;20195;-84
2022/10/06 06:31:26;;;;;;;0.20;0.20;;;12.20;99.90;;;;;;5023335;28;20485;-84
2022/10/06 06:33:54;;;;;;;0.10;0.10;;;12.20;99.90;;;;;;5023909;28;20466;-81
2022/10/06 06:36:26;;;;;;;0.20;0.20;;;12.30;99.90;;;;;;5023976;28;20450;-82
2022/10/06 06:38:55;;;;;;;0.10;0.10;;;12.30;99.90;;;;;;5031102;28;20504;-83
2022/10/06 06:41:24;;;;;;;0.20;0.20;;;12.40;99.90;;;;;;5021727;28;20545;-83
2022/10/06 06:43:50;;;;;;;0.20;0.20;;;12.30;99.90;;;;;;5029415;28;20449;-82
2022/10/06 06:46:17;;;;;;;0.10;0.10;;;12.40;99.90;;;;;;5020249;28;20450;-82
2022/10/06 06:48:44;;;;;;;0.20;0.20;;;12.40;99.90;;;;;;5019404;28;20640;-82
2022/10/06 06:51:10;;;;;;;0.10;0.10;;;12.50;99.90;;;;;;5020353;28;20545;-83
2022/10/06 06:53:37;;;;;;;0.10;0.10;;;12.50;99.90;;;;;;5028293;28;20913;-82
2022/10/06 06:56:03;;;;;;;0.10;0.10;;;12.70;99.90;;;;;;5022725;28;20491;-82
2022/10/06 06:58:29;;;;;;;0.10;0.10;;;12.80;99.90;;;;;;5032351;28;21166;-82
2022/10/06 07:01:23;;;;;;;0.10;0.10;;;12.80;99.90;;;;;;5021587;28;20569;-82
2022/10/06 07:03:54;;;;;;;0.10;0.10;;;13.00;99.90;;;;;;5026350;28;20199;-82
2022/10/06 07:06:20;;;;;;;0.10;0.10;;;13.00;99.90;;;;;;5028112;28;20446;-82
2022/10/06 07:08:47;;;;;;;0.10;0.10;;;13.10;99.90;;;;;;5029587;28;20532;-82
2022/10/06 07:11:34;;;;;;;0.10;0.10;;;13.10;99.90;;;;;;5031777;28;21159;-82
2022/10/06 07:14:08;;;;;;;0.10;0.10;;;13.10;99.90;;;;;;5016623;28;20446;-81
2022/10/06 07:25:07;;;;;;;0.20;0.20;;;13.50;99.90;;;;;;5015846;28;20476;-81
2022/10/06 07:27:35;;;;;;;0.10;0.10;;;13.70;99.90;;;;;;5021059;28;20843;-82
2022/10/06 07:30:01;;;;;;;0.20;0.20;;;13.80;99.90;;;;;;5027793;28;20443;-81
2022/10/06 07:32:29;;;;;;;0.10;0.10;;;13.80;99.90;;;;;;5012852;28;20415;-81
2022/10/06 07:34:57;;;;;;;0.10;0.10;;;13.90;99.90;;;;;;5023223;28;20473;-81
2022/10/06 07:37:22;;;;;;;0.10;0.10;;;13.90;99.90;;;;;;5027925;28;20534;-81
2022/10/06 07:39:48;;;;;;;0.10;0.10;;;14.00;99.90;;;;;;5025839;28;20458;-82
2022/10/06 07:42:15;;;;;;;0.10;0.10;;;14.00;99.90;;;;;;5031649;28;20570;-81
2022/10/06 07:44:42;;;;;;;0.10;0.10;;;14.10;99.90;;;;;;5027478;28;20184;-81
2022/10/06 07:47:08;;;;;;;0.10;0.10;;;14.20;99.90;;;;;;5018674;28;20454;-82
2022/10/06 07:49:33;;;;;;;0.10;0.10;;;14.30;99.90;;;;;;5023736;28;20499;-81
2022/10/06 07:52:00;;;;;;;0.10;0.10;;;14.30;99.90;;;;;;5028479;28;20445;-82
2022/10/06 07:54:25;;;;;;;0.10;0.10;;;14.50;99.90;;;;;;5027391;28;20226;-82
2022/10/06 07:56:51;;;;;;;0.10;0.10;;;14.50;99.90;;;;;;5030211;28;20446;-82
2022/10/06 07:59:17;;;;;;;0.10;0.10;;;14.50;99.90;;;;;;5023289;28;20196;-81
2022/10/06 08:01:44;;;;;;;0.10;0.10;;;14.60;99.90;;;;;;5021450;28;20482;-81
2022/10/06 08:04:10;;;;;;;0.10;0.10;;;14.70;99.90;;;;;;5030077;28;20226;-81
2022/10/06 08:06:37;;;;;;;0.10;0.10;;;14.80;99.90;;;;;;5028834;28;20442;-82
2022/10/06 08:09:03;;;;;;;0.10;0.10;;;15.00;99.90;;;;;;5028367;28;20461;-85
2022/10/06 08:11:29;;;;;;;0.10;0.10;;;15.00;99.90;;;;;;5020517;28;20455;-84
2022/10/06 08:13:54;;;;;;;0.10;0.10;;;15.00;99.90;;;;;;5020711;28;20438;-84
2022/10/06 08:16:23;;;;;;;0.10;0.10;;;15.10;99.90;;;;;;5026188;28;20190;-84
2022/10/06 08:18:53;;;;;;;0.10;0.10;;;15.20;99.90;;;;;;5027021;28;20207;-85
2022/10/06 08:21:24;;;;;;;0.10;0.10;;;15.30;99.90;;;;;;5021263;28;20492;-85
2022/10/06 08:23:51;;;;;;;0.10;0.10;;;15.30;99.90;;;;;;5015625;28;20443;-84
2022/10/06 08:26:18;;;;;;;0.10;0.10;;;15.40;99.90;;;;;;5020527;28;20446;-84
2022/10/06 08:28:46;;;;;;;0.10;0.10;;;15.20;99.90;;;;;;5017273;28;20569;-85
2022/10/06 08:31:14;;;;;;;0.10;0.10;;;15.40;99.90;;;;;;5019623;28;20446;-84
2022/10/06 08:33:41;;;;;;;0.10;0.10;;;15.10;99.90;;;;;;5022162;28;20430;-84
2022/10/06 08:36:13;;;;;;;0.10;0.10;;;15.10;99.90;;;;;;5015764;28;20497;-82
2022/10/06 08:38:39;;;;;;;0.10;0.10;;;15.20;99.90;;;;;;5015020;28;20490;-85
2022/10/06 08:41:29;;;;;;;0.10;0.10;;;15.30;99.90;;;;;;5010430;28;20474;-85
2022/10/06 08:44:03;;;;;;;0.10;0.10;;;15.20;99.90;;;;;;5017385;28;20447;-84
2022/10/06 08:46:45;;;;;;;0.10;0.10;;;14.80;99.90;;;;;;5026009;28;20465;-84
2022/10/06 08:49:17;;;;;;;0.10;0.10;;;14.80;99.90;;;;;;5029036;28;20524;-85
2022/10/06 08:51:53;;;;;;;0.10;0.10;;;14.90;99.90;;;;;;5027376;28;20533;-84
2022/10/06 08:54:34;;;;;;;0.10;0.10;;;14.90;99.90;;;;;;5024800;28;20461;-87
2022/10/06 08:57:15;;;;;;;0.10;0.10;;;14.70;99.90;;;;;;5021868;28;20793;-84
2022/10/06 08:59:45;;;;;;;0.10;0.10;;;14.80;99.90;;;;;;5024306;28;20446;-83
2022/10/06 09:02:33;;;;;;;0.10;0.10;;;14.60;99.90;;;;;;5029513;28;20482;-85
2022/10/06 09:05:03;;;;;;;0.10;0.10;;;14.60;99.90;;;;;;5022419;28;20549;-84
2022/10/06 09:07:37;;;;;;;0.10;0.10;;;14.60;99.90;;;;;;5029238;28;20421;-84
2022/10/06 09:10:18;;;;;;;0.10;0.10;;;14.90;99.90;;;;;;5027136;28;20807;-84
2022/10/06 09:13:08;;;;;;;0.10;0.10;;;15.10;99.90;;;;;;5028451;28;20422;-84
2022/10/06 09:15:45;;;;;;;0.10;0.10;;;15.30;99.90;;;;;;5017409;28;20472;-84
2022/10/06 09:18:30;;;;;;;0.10;0.10;;;15.60;99.90;;;;;;5014241;28;20470;-83
2022/10/06 09:21:05;;;;;;;0.10;0.10;;;16.00;99.90;;;;;;5024674;28;20477;-84
2022/10/06 09:23:48;;;;;;;0.10;0.10;;;15.90;99.90;;;;;;5021515;28;20502;-83
2022/10/06 09:26:21;;;;;;;0.10;0.10;;;16.00;99.90;;;;;;5020178;28;20796;-84
2022/10/06 09:28:50;;;;;;;0.10;0.10;;;15.70;99.90;;;;;;5021909;28;20460;-83
2022/10/06 09:31:30;;;;;;;0.10;0.10;;;15.90;99.90;;;;;;5028992;28;20442;-84
2022/10/06 09:34:19;;;;;;;0.10;0.10;;;16.20;99.90;;;;;;5022474;28;20458;-83
2022/10/06 09:37:08;;;;;;;0.10;0.10;;;16.40;99.90;;;;;;5002997;28;20981;-84
2022/10/06 09:39:48;;;;;;;0.10;0.10;;;16.20;99.90;;;;;;5027044;28;20485;-84
2022/10/06 09:42:21;;;;;;;0.10;0.10;;;16.20;99.90;;;;;;5021007;28;20502;-85
2022/10/06 09:44:50;;;;;;;0.10;0.10;;;15.90;99.90;;;;;;5008892;28;20415;-84
2022/10/06 09:47:27;;;;;;;0.10;0.10;;;15.50;99.90;;;;;;5014654;28;20997;-84
2022/10/06 09:50:11;;;;;;;0.10;0.10;;;15.40;99.90;;;;;;5028061;28;20479;-84
2022/10/06 09:53:04;;;;;;;0.10;0.10;;;15.00;99.90;;;;;;5025511;28;20460;-85
2022/10/06 09:55:35;;;;;;;0.10;0.10;;;14.90;99.90;;;;;;5027448;28;20448;-85
2022/10/06 09:58:01;;;;;;;0.10;0.10;;;14.70;99.90;;;;;;5025035;28;20450;-85
2022/10/06 10:00:28;;;;;;;0.10;0.10;;;14.50;99.90;;;;;;5023462;28;20442;-85
2022/10/06 10:02:59;;;;;;;0.10;0.10;;;14.50;99.90;;;;;;5022829;28;20465;-84
2022/10/06 10:05:27;;;;;;;0.10;0.10;;;14.40;99.90;;;;;;5018234;28;20472;-84
2022/10/06 10:08:01;;;;;;;0.10;0.10;;;14.30;99.90;;;;;;5021062;28;20455;-84
2022/10/06 10:10:26;;;;;;;0.10;0.10;;;14.70;99.90;;;;;;5011376;28;20454;-82
2022/10/06 10:12:57;;;;;;;0.10;0.10;;;15.50;99.90;;;;;;5023293;28;20455;-85
2022/10/06 10:15:26;;;;;;;0.10;0.10;;;16.60;99.90;;;;;;5018142;28;20243;-85
2022/10/06 10:18:04;;;;;;;0.10;0.10;;;17.00;99.90;;;;;;5020334;28;20481;-85
2022/10/06 10:20:49;;;;;;;0.10;0.10;;;16.90;99.90;;;;;;5029191;28;20441;-85
2022/10/06 10:23:28;;;;;;;0.10;0.10;;;16.90;99.90;;;;;;5023259;28;20457;-86
2022/10/06 10:26:19;;;;;;;0.10;0.10;;;17.30;99.90;;;;;;5019106;28;20441;-84
2022/10/06 10:29:06;;;;;;;0.10;0.10;;;16.90;99.90;;;;;;5023939;28;20443;-84
2022/10/06 10:31:48;;;;;;;0.10;0.10;;;17.60;99.90;;;;;;5029427;28;20809;-85
2022/10/06 10:34:41;;;;;;;0.10;0.10;;;17.70;99.90;;;;;;5024029;28;20485;-84
2022/10/06 10:37:09;;;;;;;0.10;0.10;;;17.30;99.90;;;;;;5024889;28;20457;-86
2022/10/06 10:39:46;;;;;;;0.10;0.10;;;18.00;99.90;;;;;;5023991;28;20469;-84
2022/10/06 10:42:47;;;;;;;0.10;0.10;;;17.50;99.90;;;;;;5015930;28;21008;-85
2022/10/06 10:45:31;;;;;;;0.10;0.10;;;17.80;99.90;;;;;;5025662;28;20510;-87
2022/10/06 10:47:59;;;;;;;0.10;0.10;;;18.20;99.90;;;;;;5014907;28;20439;-85
2022/10/06 10:50:57;;;;;;;0.10;0.10;;;17.60;99.90;;;;;;5021096;28;20438;-84
2022/10/06 10:53:46;;;;;;;0.10;0.10;;;17.20;99.90;;;;;;5021512;28;20458;-85
2022/10/06 10:56:15;;;;;;;0.10;0.10;;;17.80;99.90;;;;;;5018448;28;20544;-85
2022/10/06 10:58:42;;;;;;;0.10;0.10;;;17.60;99.90;;;;;;5018899;28;20457;-81
2022/10/06 11:01:24;;;;;;;0.10;0.10;;;17.30;99.90;;;;;;5028672;28;20920;-85
2022/10/06 11:03:55;;;;;;;0.10;0.10;;;17.00;99.90;;;;;;5029009;28;20869;-86
2022/10/06 11:06:53;;;;;;;0.10;0.10;;;16.90;99.90;;;;;;5022314;28;20946;-84
2022/10/06 11:09:57;;;;;;;0.10;0.10;;;16.90;99.90;;;;;;5023654;28;20445;-82
2022/10/06 11:12:37;;;;;;;0.10;0.10;;;18.30;99.90;;;;;;5016468;28;20461;-85
2022/10/06 11:15:39;;;;;;;0.10;0.00;;;19.30;99.90;;;;;;5021391;28;20479;-86
2022/10/06 11:18:40;;;;;;;0.10;0.00;;;19.40;99.90;;;;;;5023167;28;20544;-84
2022/10/06 11:21:14;;;;;;;0.10;0.00;;;18.00;99.90;;;;;;5033121;28;20485;-85
2022/10/06 11:24:04;;;;;;;0.10;0.10;;;17.40;99.90;;;;;;5025509;28;20442;-86
2022/10/06 11:26:51;;;;;;;0.10;0.10;;;17.20;99.90;;;;;;5026788;28;20637;-83
2022/10/06 11:29:37;;;;;;;0.10;0.10;;;16.90;99.90;;;;;;5024466;28;21032;-85
2022/10/06 11:32:16;;;;;;;0.10;0.10;;;16.70;99.90;;;;;;5024425;28;20434;-85
2022/10/06 11:34:43;;;;;;;0.10;0.10;;;17.10;99.90;;;;;;5030801;28;21108;-87
2022/10/06 11:37:32;;;;;;;0.10;0.10;;;17.40;99.90;;;;;;5030915;28;20454;-85
2022/10/06 11:40:12;;;;;;;0.10;0.10;;;17.50;99.90;;;;;;5028351;28;20447;-85
2022/10/06 11:42:46;;;;;;;0.10;0.10;;;17.00;99.90;;;;;;5020122;28;20516;-82
2022/10/06 11:45:21;;;;;;;0.10;0.10;;;16.40;99.90;;;;;;5027513;28;20508;-84
2022/10/06 11:48:23;;;;;;;0.10;0.10;;;17.60;99.90;;;;;;5013647;28;20477;-85
2022/10/06 11:50:54;;;;;;;0.10;0.10;;;17.80;99.90;;;;;;5028528;28;20461;-85
2022/10/06 11:53:35;;;;;;;0.10;0.10;;;17.50;99.90;;;;;;5031494;28;20952;-83
2022/10/06 11:56:16;;;;;;;0.10;0.00;;;17.70;99.90;;;;;;5028755;28;20430;-85
2022/10/06 11:58:50;;;;;;;0.10;0.10;;;17.80;99.90;;;;;;5030836;28;20434;-85
2022/10/06 12:01:25;;;;;;;0.10;0.10;;;18.90;99.90;;;;;;5025565;28;20492;-84
2022/10/06 12:04:10;;;;;;;0.10;0.10;;;19.60;99.90;;;;;;5028537;28;20529;-83
2022/10/06 12:06:52;;;;;;;0.10;0.00;;;19.60;99.90;;;;;;5029393;28;20452;-84
2022/10/06 12:09:38;;;;;;;0.10;0.00;;;19.70;99.90;;;;;;5026747;28;20449;-84
2022/10/06 12:12:19;;;;;;;0.10;0.00;;;20.10;99.90;;;;;;5028205;28;20653;-84
2022/10/06 12:15:11;;;;;;;0.10;0.00;;;20.00;99.90;;;;;;5017132;28;20537;-82
2022/10/06 12:17:57;;;;;;;0.10;0.00;;;20.00;99.90;;;;;;5018318;28;20442;-85
2022/10/06 12:20:28;;;;;;;0.10;0.00;;;18.50;99.90;;;;;;5013346;28;20476;-84
2022/10/06 12:23:02;;;;;;;0.10;0.10;;;18.20;99.90;;;;;;5025362;28;20504;-84
2022/10/06 12:25:30;;;;;;;0.10;0.10;;;17.80;99.90;;;;;;5029862;28;21032;-83
2022/10/06 12:28:05;;;;;;;0.10;0.00;;;18.50;99.90;;;;;;5029937;28;20478;-83
2022/10/06 12:30:41;;;;;;;0.10;0.00;;;19.40;99.90;;;;;;5032212;28;20441;-83
2022/10/06 12:33:16;;;;;;;0.10;0.10;;;18.70;99.90;;;;;;5017842;28;20454;-83
2022/10/06 12:35:43;;;;;;;0.10;0.00;;;18.50;99.90;;;;;;5028788;28;20481;-83
2022/10/06 12:38:30;;;;;;;0.10;0.00;;;19.50;99.90;;;;;;5015215;28;20455;-84
2022/10/06 12:40:56;;;;;;;0.10;0.00;;;19.30;99.90;;;;;;5028408;28;20478;-84
2022/10/06 12:43:22;;;;;;;0.10;0.00;;;18.80;99.90;;;;;;5023349;28;20945;-86
2022/10/06 12:45:54;;;;;;;0.10;0.00;;;19.00;99.90;;;;;;5025897;28;20489;-86
2022/10/06 12:48:26;;;;;;;0.10;0.10;;;18.60;99.90;;;;;;5027192;28;20527;-87
2022/10/06 12:51:02;;;;;;;0.10;0.00;;;18.80;99.90;;;;;;5023371;28;20473;-84
2022/10/06 12:53:35;;;;;;;0.10;0.00;;;19.70;99.90;;;;;;5024476;28;20484;-86
2022/10/06 12:56:10;;;;;;;0.10;0.00;;;19.10;99.90;;;;;;5025343;28;20455;-84
2022/10/06 12:58:36;;;;;;;0.10;0.10;;;19.60;99.90;;;;;;5021742;28;20451;-85
2022/10/06 13:01:05;;;;;;;0.10;0.00;;;20.70;99.90;;;;;;5027857;28;20466;-86
2022/10/06 13:03:31;;;;;;;0.10;0.00;;;20.90;99.90;;;;;;5009658;28;20192;-85
2022/10/06 13:06:00;;;;;;;0.10;0.00;;;21.50;99.90;;;;;;5025751;28;20516;-85
2022/10/06 13:08:28;;;;;;;0.10;0.00;;;22.20;99.90;;;;;;5013318;28;20191;-84
2022/10/06 13:11:25;;;;;;;0.10;0.00;;;21.40;99.90;;;;;;5024020;28;20437;-84
2022/10/06 13:13:53;;;;;;;0.10;0.00;;;20.30;99.90;;;;;;5016330;28;21037;-84
2022/10/06 13:16:25;;;;;;;0.10;0.00;;;19.40;99.90;;;;;;5023221;28;20517;-85
2022/10/06 13:18:55;;;;;;;0.10;0.00;;;19.40;99.90;;;;;;5028681;28;20523;-85
2022/10/06 13:21:23;;;;;;;0.10;0.10;;;19.30;99.90;;;;;;5013180;28;21110;-84
2022/10/06 13:23:49;;;;;;;0.10;0.10;;;20.00;99.90;;;;;;5020703;28;20512;-85
2022/10/06 13:26:26;;;;;;;0.10;0.00;;;18.90;99.90;;;;;;5016929;28;20434;-87
2022/10/06 13:28:57;;;;;;;0.10;0.00;;;18.50;99.90;;;;;;5021916;28;20437;-86
2022/10/06 13:31:30;;;;;;;0.10;0.00;;;19.30;99.90;;;;;;5019967;28;21024;-85
2022/10/06 13:34:00;;;;;;;0.10;0.00;;;19.00;99.90;;;;;;5026992;28;20435;-86
2022/10/06 13:36:32;;;;;;;0.10;0.00;;;18.30;99.90;;;;;;5021238;28;20438;-86
2022/10/06 13:39:01;;;;;;;0.10;0.00;;;19.50;99.90;;;;;;5025517;28;20454;-86
2022/10/06 13:41:33;;;;;;;0.10;0.00;;;19.90;99.90;;;;;;5016101;28;20490;-86
2022/10/06 13:44:15;;;;;;;0.10;0.00;;;20.80;99.90;;;;;;5028573;28;20471;-88
2022/10/06 13:46:44;;;;;;;0.10;0.00;;;19.10;99.90;;;;;;5028209;28;20453;-86
2022/10/06 13:49:34;;;;;;;0.10;0.10;;;17.90;99.90;;;;;;5028477;28;20501;-88
2022/10/06 13:52:05;;;;;;;0.10;0.10;;;18.20;99.90;;;;;;5025816;28;20438;-87
2022/10/06 13:54:34;;;;;;;0.10;0.00;;;18.40;99.90;;;;;;5015125;28;20450;-87
2022/10/06 13:57:00;;;;;;;0.10;0.10;;;20.10;99.90;;;;;;5028432;28;20430;-88
2022/10/06 13:59:26;;;;;;;0.10;0.10;;;19.70;99.90;;;;;;5012982;28;20443;-87
2022/10/06 14:01:52;;;;;;;0.10;0.00;;;19.90;99.90;;;;;;5020624;28;20234;-86
2022/10/06 14:04:18;;;;;;;0.10;0.00;;;20.50;99.90;;;;;;5022028;28;20454;-87
2022/10/06 14:06:54;;;;;;;0.10;0.00;;;20.60;99.90;;;;;;5016711;28;20449;-88
2022/10/06 14:09:25;;;;;;;0.10;0.10;;;19.60;99.90;;;;;;5025968;28;20237;-86
2022/10/06 14:11:59;;;;;;;0.10;0.00;;;20.30;99.90;;;;;;5026029;28;20531;-87
2022/10/06 14:14:25;;;;;;;0.10;0.00;;;19.70;99.90;;;;;;5025056;28;20445;-86
2022/10/06 14:16:51;;;;;;;0.10;0.00;;;18.70;99.90;;;;;;5025345;28;20447;-86
2022/10/06 14:19:34;;;;;;;0.10;0.10;;;17.80;99.90;;;;;;5024314;28;20226;-86
2022/10/06 14:22:01;;;;;;;0.10;0.10;;;17.60;99.90;;;;;;5011121;28;20954;-86
2022/10/06 14:24:32;;;;;;;0.10;0.10;;;17.30;99.90;;;;;;5017666;28;20442;-86
2022/10/06 14:27:04;;;;;;;0.10;0.10;;;17.30;99.90;;;;;;5019847;28;20875;-86
2022/10/06 14:29:30;;;;;;;0.10;0.10;;;16.70;99.90;;;;;;5027983;28;20433;-86
2022/10/06 14:32:11;;;;;;;0.10;0.10;;;16.60;99.90;;;;;;5018143;28;20586;-86
2022/10/06 14:34:39;;;;;;;0.10;0.10;;;16.70;99.90;;;;;;5018037;28;20470;-84
2022/10/06 14:37:05;;;;;;;0.10;0.10;;;16.40;99.90;;;;;;5021745;28;20488;-85
2022/10/06 14:39:31;;;;;;;0.10;0.10;;;16.70;99.90;;;;;;5023542;28;20449;-85
2022/10/06 14:41:56;;;;;;;0.10;0.10;;;16.40;99.90;;;;;;5021933;28;20309;-85
2022/10/06 14:44:22;;;;;;;0.10;0.10;;;16.30;99.90;;;;;;5021493;28;20192;-86
2022/10/06 14:46:48;;;;;;;0.10;0.10;;;16.30;99.90;;;;;;5020476;28;20709;-86
2022/10/06 14:49:14;;;;;;;0.10;0.10;;;16.30;99.90;;;;;;5017348;28;20197;-86
2022/10/06 14:51:44;;;;;;;0.10;0.10;;;16.10;99.90;;;;;;5015132;28;20188;-85
2022/10/06 14:54:11;;;;;;;0.10;0.10;;;16.10;99.90;;;;;;5019038;28;20802;-85
2022/10/06 14:56:37;;;;;;;0.10;0.10;;;15.80;99.90;;;;;;5018153;28;20481;-86
2022/10/06 14:59:06;;;;;;;0.10;0.10;;;15.90;99.90;;;;;;5026545;28;20445;-86
2022/10/06 15:01:34;;;;;;;0.10;0.10;;;15.90;99.90;;;;;;5021732;28;20481;-86
2022/10/06 15:04:04;;;;;;;0.10;0.10;;;15.80;99.90;;;;;;5028667;28;20482;-85
2022/10/06 15:09:14;;;;;;;0.10;0.10;;;15.90;99.90;;;;;;5027078;28;20500;-85
2022/10/06 15:11:40;;;;;;;0.10;0.10;;;15.70;99.90;;;;;;5026017;28;20446;-85
2022/10/06 15:14:10;;;;;;;0.10;0.10;;;15.90;99.90;;;;;;5017541;28;20687;-85
2022/10/06 15:16:40;;;;;;;0.10;0.10;;;15.80;99.90;;;;;;5029266;28;20454;-86
2022/10/06 15:19:07;;;;;;;0.10;0.10;;;16.00;99.90;;;;;;5016477;28;20461;-87
2022/10/06 15:21:44;;;;;;;0.10;0.10;;;16.00;99.90;;;;;;5031255;28;20482;-87
2022/10/06 15:24:13;;;;;;;0.10;0.10;;;15.90;99.90;;;;;;5026884;28;20901;-87
2022/10/06 15:29:23;;;;;;;0.10;0.10;;;15.80;99.90;;;;;;5034776;28;20465;-85
2022/10/06 15:31:53;;;;;;;0.10;0.10;;;15.80;99.90;;;;;;5028496;28;20451;-84
2022/10/06 15:34:27;;;;;;;0.10;0.10;;;15.40;99.90;;;;;;5036689;28;20231;-81
2022/10/06 15:36:54;;;;;;;0.10;0.10;;;15.50;99.90;;;;;;5038841;28;20874;-84
2022/10/06 15:39:23;;;;;;;0.10;0.10;;;15.50;99.90;;;;;;5025362;28;20525;-85
2022/10/06 15:41:49;;;;;;;0.10;0.10;;;15.50;99.90;;;;;;5023806;28;20528;-86
2022/10/06 15:44:15;;;;;;;0.00;0.00;;;15.30;99.90;;;;;;5033003;28;20466;-84
2022/10/06 15:46:43;;;;;;;0.00;0.00;;;15.50;99.90;;;;;;5028485;28;20188;-85
2022/10/06 15:49:19;;;;;;;0.10;0.10;;;15.40;99.90;;;;;;5022063;28;20553;-83
2022/10/06 15:51:57;;;;;;;0.10;0.10;;;15.40;99.90;;;;;;5026360;28;20450;-86
2022/10/06 15:54:25;;;;;;;0.10;0.10;;;15.40;99.90;;;;;;5015521;28;20443;-85
2022/10/06 15:56:56;;;;;;;0.10;0.10;;;15.20;99.90;;;;;;5021403;28;21451;-87
2022/10/06 15:59:23;;;;;;;0.10;0.10;;;15.30;99.90;;;;;;5016709;28;20458;-86
2022/10/06 16:01:55;;;;;;;0.10;0.10;;;15.30;99.90;;;;;;5018075;28;20531;-86
2022/10/06 16:04:26;;;;;;;0.10;0.10;;;15.20;99.90;;;;;;5011536;28;20505;-85
2022/10/06 16:06:55;;;;;;;0.10;0.10;;;15.00;99.90;;;;;;5016376;28;20486;-84
2022/10/06 16:09:38;;;;;;;0.10;0.10;;;15.10;99.90;;;;;;5014010;28;21025;-85
2022/10/06 16:12:06;;;;;;;0.10;0.10;;;14.90;99.90;;;;;;5014606;28;20458;-84
2022/10/06 16:14:32;;;;;;;0.10;0.10;;;14.90;99.90;;;;;;5017209;28;20450;-86
2022/10/06 16:16:59;;;;;;;0.10;0.10;;;14.90;99.90;;;;;;5024394;28;20457;-85
2022/10/06 16:19:26;;;;;;;0.10;0.10;;;14.80;99.90;;;;;;5021093;28;20952;-86